Amor, Minnesota
Current Conditions -  °F | °C
As of 2:14 AM on Thursday 27 Nov 2014 (Local Time) from KFFM Reporting Station
Clear Clear  
Wind Chill: -22°   Ceiling: Unl
Heat Index: -22°   Visibility: 10mi
Dew Point: -26°   Wind: 3mph
Humidity: 71%   Direction: 40°NE
Pressure: 30.55"   Gusts: NA
Location:  46.3166°N, 95.7183°W
Report Text: KFFM 270814Z AUTO 04003KT 10SM CLR M22/M26 A3055 RMK AO2
Loading
Personal Weather Stations






























Interactive Weather Map New forecast layout! Learn more

10-Day Weather Forecast

Advertisements
Track Severe Weather on mobile